sensor_id;sensor_type;location;lat;lon;timestamp;temperature;humidity
57829;DHT22;43657;52.698;6.314;2023-08-30T00:00:39;11.90;99.90
57829;DHT22;43657;52.698;6.314;2023-08-30T00:03:05;12.00;99.90
57829;DHT22;43657;52.698;6.314;2023-08-30T00:05:31;12.00;99.90
57829;DHT22;43657;52.698;6.314;2023-08-30T00:07:57;12.00;99.90
57829;DHT22;43657;52.698;6.314;2023-08-30T00:10:23;12.00;99.90
57829;DHT22;43657;52.698;6.314;2023-08-30T00:12:49;12.00;99.90
57829;DHT22;43657;52.698;6.314;2023-08-30T00:15:14;12.10;99.90
57829;DHT22;43657;52.698;6.314;2023-08-30T00:17:40;12.10;99.90
57829;DHT22;43657;52.698;6.314;2023-08-30T00:20:06;12.20;99.90
57829;DHT22;43657;52.698;6.314;2023-08-30T00:22:32;12.20;99.90
57829;DHT22;43657;52.698;6.314;2023-08-30T00:24:59;12.20;99.90
57829;DHT22;43657;52.698;6.314;2023-08-30T00:27:24;12.20;99.90
57829;DHT22;43657;52.698;6.314;2023-08-30T00:29:50;12.20;99.90
57829;DHT22;43657;52.698;6.314;2023-08-30T00:32:15;12.10;99.90
57829;DHT22;43657;52.698;6.314;2023-08-30T00:34:41;12.20;99.90
57829;DHT22;43657;52.698;6.314;2023-08-30T00:37:06;12.10;99.90
57829;DHT22;43657;52.698;6.314;2023-08-30T00:39:34;12.10;99.90
57829;DHT22;43657;52.698;6.314;2023-08-30T00:41:59;12.10;99.90
57829;DHT22;43657;52.698;6.314;2023-08-30T00:44:30;12.10;99.90
57829;DHT22;43657;52.698;6.314;2023-08-30T00:46:55;12.00;99.90
57829;DHT22;43657;52.698;6.314;2023-08-30T00:49:21;12.00;99.90
57829;DHT22;43657;52.698;6.314;2023-08-30T00:51:47;12.00;99.90
57829;DHT22;43657;52.698;6.314;2023-08-30T00:54:12;12.00;99.90
57829;DHT22;43657;52.698;6.314;2023-08-30T00:56:38;12.10;99.90
57829;DHT22;43657;52.698;6.314;2023-08-30T00:59:03;12.00;99.90
57829;DHT22;43657;52.698;6.314;2023-08-30T01:01:29;12.00;99.90
57829;DHT22;43657;52.698;6.314;2023-08-30T01:03:55;12.00;99.90
57829;DHT22;43657;52.698;6.314;2023-08-30T01:06:20;12.00;99.90
57829;DHT22;43657;52.698;6.314;2023-08-30T01:08:46;12.00;99.90
57829;DHT22;43657;52.698;6.314;2023-08-30T01:13:52;12.10;99.90
57829;DHT22;43657;52.698;6.314;2023-08-30T01:16:19;12.00;99.90
57829;DHT22;43657;52.698;6.314;2023-08-30T01:18:47;12.00;99.90
57829;DHT22;43657;52.698;6.314;2023-08-30T01:21:23;12.00;99.90
57829;DHT22;43657;52.698;6.314;2023-08-30T01:23:59;12.00;99.90
57829;DHT22;43657;52.698;6.314;2023-08-30T01:29:05;11.90;99.90
57829;DHT22;43657;52.698;6.314;2023-08-30T01:31:35;11.90;99.90
57829;DHT22;43657;52.698;6.314;2023-08-30T01:34:04;11.90;99.90
57829;DHT22;43657;52.698;6.314;2023-08-30T01:36:31;11.90;99.90
57829;DHT22;43657;52.698;6.314;2023-08-30T01:38:58;11.90;99.90
57829;DHT22;43657;52.698;6.314;2023-08-30T01:41:26;11.90;99.90
57829;DHT22;43657;52.698;6.314;2023-08-30T01:43:52;12.00;99.90
57829;DHT22;43657;52.698;6.314;2023-08-30T01:46:18;12.00;99.90
57829;DHT22;43657;52.698;6.314;2023-08-30T01:48:47;12.00;99.90
57829;DHT22;43657;52.698;6.314;2023-08-30T01:51:15;12.00;99.90
57829;DHT22;43657;52.698;6.314;2023-08-30T01:53:43;12.00;99.90
57829;DHT22;43657;52.698;6.314;2023-08-30T01:56:09;12.00;99.90
57829;DHT22;43657;52.698;6.314;2023-08-30T01:58:35;12.00;99.90
57829;DHT22;43657;52.698;6.314;2023-08-30T02:01:00;12.00;99.90
57829;DHT22;43657;52.698;6.314;2023-08-30T02:03:26;12.10;99.90
57829;DHT22;43657;52.698;6.314;2023-08-30T02:05:56;12.10;99.90
57829;DHT22;43657;52.698;6.314;2023-08-30T02:08:26;12.10;99.90
57829;DHT22;43657;52.698;6.314;2023-08-30T02:11:02;12.10;99.90
57829;DHT22;43657;52.698;6.314;2023-08-30T02:13:30;12.10;99.90
57829;DHT22;43657;52.698;6.314;2023-08-30T02:15:59;12.10;99.90
57829;DHT22;43657;52.698;6.314;2023-08-30T02:18:26;12.20;99.90
57829;DHT22;43657;52.698;6.314;2023-08-30T02:20:52;12.20;99.90
57829;DHT22;43657;52.698;6.314;2023-08-30T02:23:18;12.10;99.90
57829;DHT22;43657;52.698;6.314;2023-08-30T02:25:44;12.10;99.90
57829;DHT22;43657;52.698;6.314;2023-08-30T02:28:10;12.10;99.90
57829;DHT22;43657;52.698;6.314;2023-08-30T02:30:35;12.10;99.90
57829;DHT22;43657;52.698;6.314;2023-08-30T02:33:01;11.90;99.90
57829;DHT22;43657;52.698;6.314;2023-08-30T02:35:27;11.90;99.90
57829;DHT22;43657;52.698;6.314;2023-08-30T02:37:52;11.80;99.90
57829;DHT22;43657;52.698;6.314;2023-08-30T02:40:18;11.70;99.90
57829;DHT22;43657;52.698;6.314;2023-08-30T02:42:43;11.70;99.90
57829;DHT22;43657;52.698;6.314;2023-08-30T02:45:09;11.60;99.90
57829;DHT22;43657;52.698;6.314;2023-08-30T02:47:35;11.60;99.90
57829;DHT22;43657;52.698;6.314;2023-08-30T02:50:00;11.60;99.90
57829;DHT22;43657;52.698;6.314;2023-08-30T02:52:26;11.50;99.90
57829;DHT22;43657;52.698;6.314;2023-08-30T02:54:51;11.50;99.90
57829;DHT22;43657;52.698;6.314;2023-08-30T02:57:17;11.50;99.90
57829;DHT22;43657;52.698;6.314;2023-08-30T02:59:43;11.50;99.90
57829;DHT22;43657;52.698;6.314;2023-08-30T03:02:08;11.50;99.90
57829;DHT22;43657;52.698;6.314;2023-08-30T03:04:34;11.50;99.90
57829;DHT22;43657;52.698;6.314;2023-08-30T03:06:59;11.50;99.90
57829;DHT22;43657;52.698;6.314;2023-08-30T03:09:25;11.50;99.90
57829;DHT22;43657;52.698;6.314;2023-08-30T03:11:51;11.50;99.90
57829;DHT22;43657;52.698;6.314;2023-08-30T03:14:16;11.50;99.90
57829;DHT22;43657;52.698;6.314;2023-08-30T03:16:42;11.50;99.90
57829;DHT22;43657;52.698;6.314;2023-08-30T03:19:10;11.50;99.90
57829;DHT22;43657;52.698;6.314;2023-08-30T03:21:35;11.50;99.90
57829;DHT22;43657;52.698;6.314;2023-08-30T03:24:01;11.50;99.90
57829;DHT22;43657;52.698;6.314;2023-08-30T03:26:26;11.50;99.90
57829;DHT22;43657;52.698;6.314;2023-08-30T03:28:52;11.50;99.90
57829;DHT22;43657;52.698;6.314;2023-08-30T03:31:19;11.50;99.90
57829;DHT22;43657;52.698;6.314;2023-08-30T03:33:46;11.50;99.90
57829;DHT22;43657;52.698;6.314;2023-08-30T03:36:13;11.50;99.90
57829;DHT22;43657;52.698;6.314;2023-08-30T03:38:39;11.60;99.90
57829;DHT22;43657;52.698;6.314;2023-08-30T03:41:05;11.60;99.90
57829;DHT22;43657;52.698;6.314;2023-08-30T03:43:31;11.60;99.90
57829;DHT22;43657;52.698;6.314;2023-08-30T03:45:57;11.60;99.90
57829;DHT22;43657;52.698;6.314;2023-08-30T03:48:23;11.70;99.90
57829;DHT22;43657;52.698;6.314;2023-08-30T03:50:48;11.70;99.90
57829;DHT22;43657;52.698;6.314;2023-08-30T03:53:14;11.70;99.90
57829;DHT22;43657;52.698;6.314;2023-08-30T03:55:40;11.70;99.90
57829;DHT22;43657;52.698;6.314;2023-08-30T03:58:06;11.80;99.90
57829;DHT22;43657;52.698;6.314;2023-08-30T04:00:32;11.80;99.90
57829;DHT22;43657;52.698;6.314;2023-08-30T04:02:57;11.80;99.90
57829;DHT22;43657;52.698;6.314;2023-08-30T04:05:23;11.90;99.90
57829;DHT22;43657;52.698;6.314;2023-08-30T04:07:48;11.90;99.90
57829;DHT22;43657;52.698;6.314;2023-08-30T04:10:14;11.90;99.90
57829;DHT22;43657;52.698;6.314;2023-08-30T04:12:40;11.90;99.90
57829;DHT22;43657;52.698;6.314;2023-08-30T04:15:05;11.90;99.90
57829;DHT22;43657;52.698;6.314;2023-08-30T04:17:31;12.00;99.90
57829;DHT22;43657;52.698;6.314;2023-08-30T04:19:57;12.00;99.90
57829;DHT22;43657;52.698;6.314;2023-08-30T04:22:22;12.00;99.90
57829;DHT22;43657;52.698;6.314;2023-08-30T04:24:48;12.00;99.90
57829;DHT22;43657;52.698;6.314;2023-08-30T04:27:14;12.00;99.90
57829;DHT22;43657;52.698;6.314;2023-08-30T04:29:40;12.00;99.90
57829;DHT22;43657;52.698;6.314;2023-08-30T04:32:05;12.00;99.90
57829;DHT22;43657;52.698;6.314;2023-08-30T04:34:32;12.00;99.90
57829;DHT22;43657;52.698;6.314;2023-08-30T04:36:57;12.00;99.90
57829;DHT22;43657;52.698;6.314;2023-08-30T04:39:23;12.00;99.90
57829;DHT22;43657;52.698;6.314;2023-08-30T04:41:49;12.10;99.90
57829;DHT22;43657;52.698;6.314;2023-08-30T04:44:14;12.10;99.90
57829;DHT22;43657;52.698;6.314;2023-08-30T04:46:41;12.00;99.90
57829;DHT22;43657;52.698;6.314;2023-08-30T04:49:07;12.10;99.90
57829;DHT22;43657;52.698;6.314;2023-08-30T04:51:32;12.10;99.90
57829;DHT22;43657;52.698;6.314;2023-08-30T04:53:58;12.10;99.90
57829;DHT22;43657;52.698;6.314;2023-08-30T04:56:24;12.10;99.90
57829;DHT22;43657;52.698;6.314;2023-08-30T04:58:49;12.10;99.90
57829;DHT22;43657;52.698;6.314;2023-08-30T05:01:15;12.10;99.90
57829;DHT22;43657;52.698;6.314;2023-08-30T05:03:41;12.10;99.90
57829;DHT22;43657;52.698;6.314;2023-08-30T05:06:07;12.10;99.90
57829;DHT22;43657;52.698;6.314;2023-08-30T05:08:33;12.20;99.90
57829;DHT22;43657;52.698;6.314;2023-08-30T05:10:58;12.20;99.90
57829;DHT22;43657;52.698;6.314;2023-08-30T05:13:24;12.20;99.90
57829;DHT22;43657;52.698;6.314;2023-08-30T05:15:49;12.20;99.90
57829;DHT22;43657;52.698;6.314;2023-08-30T05:18:15;12.20;99.90
57829;DHT22;43657;52.698;6.314;2023-08-30T05:20:41;12.20;99.90
57829;DHT22;43657;52.698;6.314;2023-08-30T05:23:06;12.20;99.90
57829;DHT22;43657;52.698;6.314;2023-08-30T05:25:32;12.20;99.90
57829;DHT22;43657;52.698;6.314;2023-08-30T05:27:57;12.20;99.90
57829;DHT22;43657;52.698;6.314;2023-08-30T05:30:23;12.20;99.90
57829;DHT22;43657;52.698;6.314;2023-08-30T05:36:10;12.30;99.90
57829;DHT22;43657;52.698;6.314;2023-08-30T05:38:36;12.30;99.90
57829;DHT22;43657;52.698;6.314;2023-08-30T05:41:01;12.30;99.90
57829;DHT22;43657;52.698;6.314;2023-08-30T05:46:49;12.40;99.90
57829;DHT22;43657;52.698;6.314;2023-08-30T05:49:15;12.50;99.90
57829;DHT22;43657;52.698;6.314;2023-08-30T05:51:40;12.50;99.90
57829;DHT22;43657;52.698;6.314;2023-08-30T05:54:06;12.50;99.90
57829;DHT22;43657;52.698;6.314;2023-08-30T05:56:32;12.60;99.90
57829;DHT22;43657;52.698;6.314;2023-08-30T05:58:58;12.60;99.90
57829;DHT22;43657;52.698;6.314;2023-08-30T06:01:23;12.60;99.90
57829;DHT22;43657;52.698;6.314;2023-08-30T06:03:50;12.70;99.90
57829;DHT22;43657;52.698;6.314;2023-08-30T06:06:15;12.70;99.90
57829;DHT22;43657;52.698;6.314;2023-08-30T06:08:41;12.80;99.90
57829;DHT22;43657;52.698;6.314;2023-08-30T06:11:07;12.80;99.90
57829;DHT22;43657;52.698;6.314;2023-08-30T06:13:32;12.90;99.90
57829;DHT22;43657;52.698;6.314;2023-08-30T06:15:58;12.90;99.90
57829;DHT22;43657;52.698;6.314;2023-08-30T06:18:23;13.00;99.90
57829;DHT22;43657;52.698;6.314;2023-08-30T06:20:49;13.00;99.90
57829;DHT22;43657;52.698;6.314;2023-08-30T06:23:18;13.10;99.90
57829;DHT22;43657;52.698;6.314;2023-08-30T06:25:44;13.00;99.90
57829;DHT22;43657;52.698;6.314;2023-08-30T06:28:09;13.10;99.90
57829;DHT22;43657;52.698;6.314;2023-08-30T06:30:35;13.10;99.90
57829;DHT22;43657;52.698;6.314;2023-08-30T06:33:01;13.20;99.90
57829;DHT22;43657;52.698;6.314;2023-08-30T06:35:26;13.20;99.90
57829;DHT22;43657;52.698;6.314;2023-08-30T06:37:52;13.30;99.90
57829;DHT22;43657;52.698;6.314;2023-08-30T06:40:18;13.30;99.90
57829;DHT22;43657;52.698;6.314;2023-08-30T06:42:43;13.40;99.90
57829;DHT22;43657;52.698;6.314;2023-08-30T06:45:09;13.40;99.90
57829;DHT22;43657;52.698;6.314;2023-08-30T06:47:35;13.40;99.90
57829;DHT22;43657;52.698;6.314;2023-08-30T06:50:01;13.30;99.90
57829;DHT22;43657;52.698;6.314;2023-08-30T06:52:26;13.30;99.90
57829;DHT22;43657;52.698;6.314;2023-08-30T06:54:52;13.30;99.90
57829;DHT22;43657;52.698;6.314;2023-08-30T06:57:18;13.30;99.90
57829;DHT22;43657;52.698;6.314;2023-08-30T06:59:43;13.30;99.90
57829;DHT22;43657;52.698;6.314;2023-08-30T07:02:09;13.20;99.90
57829;DHT22;43657;52.698;6.314;2023-08-30T07:04:34;13.30;99.90
57829;DHT22;43657;52.698;6.314;2023-08-30T07:07:00;13.30;99.90
57829;DHT22;43657;52.698;6.314;2023-08-30T07:09:26;13.30;99.90
57829;DHT22;43657;52.698;6.314;2023-08-30T07:11:58;13.40;99.90
57829;DHT22;43657;52.698;6.314;2023-08-30T07:14:23;13.50;99.90
57829;DHT22;43657;52.698;6.314;2023-08-30T07:16:49;13.60;99.90
57829;DHT22;43657;52.698;6.314;2023-08-30T07:19:15;13.80;99.90
57829;DHT22;43657;52.698;6.314;2023-08-30T07:21:44;14.00;99.90
57829;DHT22;43657;52.698;6.314;2023-08-30T07:24:10;14.10;99.90
57829;DHT22;43657;52.698;6.314;2023-08-30T07:26:36;14.30;99.90
57829;DHT22;43657;52.698;6.314;2023-08-30T07:29:02;14.50;99.90
57829;DHT22;43657;52.698;6.314;2023-08-30T07:31:30;14.60;99.90
57829;DHT22;43657;52.698;6.314;2023-08-30T07:33:56;14.70;99.90
57829;DHT22;43657;52.698;6.314;2023-08-30T07:36:23;14.70;99.90
57829;DHT22;43657;52.698;6.314;2023-08-30T07:38:49;14.80;99.90
57829;DHT22;43657;52.698;6.314;2023-08-30T07:41:14;14.80;99.90
57829;DHT22;43657;52.698;6.314;2023-08-30T07:43:40;14.80;99.90
57829;DHT22;43657;52.698;6.314;2023-08-30T07:46:05;14.80;99.90
57829;DHT22;43657;52.698;6.314;2023-08-30T07:48:31;14.80;99.90
57829;DHT22;43657;52.698;6.314;2023-08-30T07:50:56;14.80;99.90
57829;DHT22;43657;52.698;6.314;2023-08-30T07:53:56;14.80;99.90
57829;DHT22;43657;52.698;6.314;2023-08-30T07:56:22;14.80;99.90
57829;DHT22;43657;52.698;6.314;2023-08-30T07:58:47;14.80;99.90
57829;DHT22;43657;52.698;6.314;2023-08-30T08:01:13;14.80;99.90
57829;DHT22;43657;52.698;6.314;2023-08-30T08:03:38;14.80;99.90
57829;DHT22;43657;52.698;6.314;2023-08-30T08:06:06;14.80;99.90
57829;DHT22;43657;52.698;6.314;2023-08-30T08:08:31;14.70;99.90
57829;DHT22;43657;52.698;6.314;2023-08-30T08:10:59;14.70;99.90
57829;DHT22;43657;52.698;6.314;2023-08-30T08:13:25;14.60;99.90
57829;DHT22;43657;52.698;6.314;2023-08-30T08:15:51;14.60;99.90
57829;DHT22;43657;52.698;6.314;2023-08-30T08:18:16;14.60;99.90
57829;DHT22;43657;52.698;6.314;2023-08-30T08:20:42;14.60;99.90
57829;DHT22;43657;52.698;6.314;2023-08-30T08:23:08;14.60;99.90
57829;DHT22;43657;52.698;6.314;2023-08-30T08:25:34;14.60;99.90
57829;DHT22;43657;52.698;6.314;2023-08-30T08:27:59;14.60;99.90
57829;DHT22;43657;52.698;6.314;2023-08-30T08:30:25;14.50;99.90
57829;DHT22;43657;52.698;6.314;2023-08-30T08:32:50;14.40;99.90
57829;DHT22;43657;52.698;6.314;2023-08-30T08:35:16;14.40;99.90
57829;DHT22;43657;52.698;6.314;2023-08-30T08:37:42;14.40;99.90
57829;DHT22;43657;52.698;6.314;2023-08-30T08:40:08;14.30;99.90
57829;DHT22;43657;52.698;6.314;2023-08-30T08:42:35;14.20;99.90
57829;DHT22;43657;52.698;6.314;2023-08-30T08:45:02;14.20;99.90
57829;DHT22;43657;52.698;6.314;2023-08-30T08:47:30;14.20;99.90
57829;DHT22;43657;52.698;6.314;2023-08-30T08:49:56;14.10;99.90
57829;DHT22;43657;52.698;6.314;2023-08-30T08:52:23;14.00;99.90
57829;DHT22;43657;52.698;6.314;2023-08-30T08:54:49;13.90;99.90
57829;DHT22;43657;52.698;6.314;2023-08-30T08:57:15;13.90;99.90
57829;DHT22;43657;52.698;6.314;2023-08-30T08:59:40;13.80;99.90
57829;DHT22;43657;52.698;6.314;2023-08-30T09:02:07;13.80;99.90
57829;DHT22;43657;52.698;6.314;2023-08-30T09:04:33;13.70;99.90
57829;DHT22;43657;52.698;6.314;2023-08-30T09:06:59;13.70;99.90
57829;DHT22;43657;52.698;6.314;2023-08-30T09:09:25;13.70;99.90
57829;DHT22;43657;52.698;6.314;2023-08-30T09:11:51;13.70;99.90
57829;DHT22;43657;52.698;6.314;2023-08-30T09:14:18;13.70;99.90
57829;DHT22;43657;52.698;6.314;2023-08-30T09:16:57;13.70;99.90
57829;DHT22;43657;52.698;6.314;2023-08-30T09:19:23;13.70;99.90
57829;DHT22;43657;52.698;6.314;2023-08-30T09:21:59;13.70;99.90
57829;DHT22;43657;52.698;6.314;2023-08-30T09:24:25;13.80;99.90
57829;DHT22;43657;52.698;6.314;2023-08-30T09:26:53;13.80;99.90
57829;DHT22;43657;52.698;6.314;2023-08-30T09:29:20;13.80;99.90
57829;DHT22;43657;52.698;6.314;2023-08-30T09:31:51;13.90;99.90
57829;DHT22;43657;52.698;6.314;2023-08-30T09:34:23;13.90;99.90
57829;DHT22;43657;52.698;6.314;2023-08-30T09:36:52;14.00;99.90
57829;DHT22;43657;52.698;6.314;2023-08-30T09:39:19;14.10;99.90
57829;DHT22;43657;52.698;6.314;2023-08-30T09:41:48;14.30;99.90
57829;DHT22;43657;52.698;6.314;2023-08-30T09:44:21;14.50;99.90
57829;DHT22;43657;52.698;6.314;2023-08-30T09:46:51;14.70;99.90
57829;DHT22;43657;52.698;6.314;2023-08-30T09:49:24;14.80;99.90
57829;DHT22;43657;52.698;6.314;2023-08-30T09:51:51;15.10;99.90
57829;DHT22;43657;52.698;6.314;2023-08-30T09:54:24;15.20;99.90
57829;DHT22;43657;52.698;6.314;2023-08-30T09:56:50;15.50;99.90
57829;DHT22;43657;52.698;6.314;2023-08-30T09:59:19;15.70;99.90
57829;DHT22;43657;52.698;6.314;2023-08-30T10:01:47;15.90;99.90
57829;DHT22;43657;52.698;6.314;2023-08-30T10:04:13;16.10;99.90
57829;DHT22;43657;52.698;6.314;2023-08-30T10:06:40;16.20;99.90
57829;DHT22;43657;52.698;6.314;2023-08-30T10:09:07;16.10;99.90
57829;DHT22;43657;52.698;6.314;2023-08-30T10:11:37;15.90;99.90
57829;DHT22;43657;52.698;6.314;2023-08-30T10:14:04;15.80;99.90
57829;DHT22;43657;52.698;6.314;2023-08-30T10:19:11;15.50;99.90
57829;DHT22;43657;52.698;6.314;2023-08-30T10:21:36;15.30;99.90
57829;DHT22;43657;52.698;6.314;2023-08-30T10:24:05;15.20;99.90
57829;DHT22;43657;52.698;6.314;2023-08-30T10:26:32;15.10;99.90
57829;DHT22;43657;52.698;6.314;2023-08-30T10:28:59;15.00;99.90
57829;DHT22;43657;52.698;6.314;2023-08-30T10:31:27;15.00;99.90
57829;DHT22;43657;52.698;6.314;2023-08-30T10:33:53;14.90;99.90
57829;DHT22;43657;52.698;6.314;2023-08-30T10:36:23;14.80;99.90
57829;DHT22;43657;52.698;6.314;2023-08-30T10:38:50;14.80;99.90
57829;DHT22;43657;52.698;6.314;2023-08-30T10:41:26;14.70;99.90
57829;DHT22;43657;52.698;6.314;2023-08-30T10:43:57;14.70;99.90
57829;DHT22;43657;52.698;6.314;2023-08-30T10:46:34;14.60;99.90
57829;DHT22;43657;52.698;6.314;2023-08-30T10:49:13;14.60;99.90
57829;DHT22;43657;52.698;6.314;2023-08-30T10:51:41;14.50;99.90
57829;DHT22;43657;52.698;6.314;2023-08-30T10:54:16;14.50;99.90
57829;DHT22;43657;52.698;6.314;2023-08-30T10:56:54;14.50;99.90
57829;DHT22;43657;52.698;6.314;2023-08-30T10:59:22;14.50;99.90
57829;DHT22;43657;52.698;6.314;2023-08-30T11:01:49;14.50;99.90
57829;DHT22;43657;52.698;6.314;2023-08-30T11:04:16;14.50;99.90
57829;DHT22;43657;52.698;6.314;2023-08-30T11:06:44;14.50;99.90
57829;DHT22;43657;52.698;6.314;2023-08-30T11:09:13;14.50;99.90
57829;DHT22;43657;52.698;6.314;2023-08-30T11:11:39;14.50;99.90
57829;DHT22;43657;52.698;6.314;2023-08-30T11:14:08;14.50;99.90
57829;DHT22;43657;52.698;6.314;2023-08-30T11:16:37;14.50;99.90
57829;DHT22;43657;52.698;6.314;2023-08-30T11:19:04;14.50;99.90
57829;DHT22;43657;52.698;6.314;2023-08-30T11:21:34;14.50;99.90
57829;DHT22;43657;52.698;6.314;2023-08-30T11:24:01;14.50;99.90
57829;DHT22;43657;52.698;6.314;2023-08-30T11:26:28;14.50;99.90
57829;DHT22;43657;52.698;6.314;2023-08-30T11:28:54;14.50;99.90
57829;DHT22;43657;52.698;6.314;2023-08-30T11:31:21;14.50;99.90
57829;DHT22;43657;52.698;6.314;2023-08-30T11:33:55;14.50;99.90
57829;DHT22;43657;52.698;6.314;2023-08-30T11:36:22;14.50;99.90
57829;DHT22;43657;52.698;6.314;2023-08-30T11:38:52;14.50;99.90
57829;DHT22;43657;52.698;6.314;2023-08-30T11:41:20;14.50;99.90
57829;DHT22;43657;52.698;6.314;2023-08-30T11:43:45;14.50;99.90
57829;DHT22;43657;52.698;6.314;2023-08-30T11:46:12;14.50;99.90
57829;DHT22;43657;52.698;6.314;2023-08-30T11:48:39;14.50;99.90
57829;DHT22;43657;52.698;6.314;2023-08-30T11:51:05;14.50;99.90
57829;DHT22;43657;52.698;6.314;2023-08-30T11:53:31;14.60;99.90
57829;DHT22;43657;52.698;6.314;2023-08-30T11:55:57;14.70;99.90
57829;DHT22;43657;52.698;6.314;2023-08-30T11:58:22;14.80;99.90
57829;DHT22;43657;52.698;6.314;2023-08-30T12:00:53;14.80;99.90
57829;DHT22;43657;52.698;6.314;2023-08-30T12:03:20;14.90;99.90
57829;DHT22;43657;52.698;6.314;2023-08-30T12:05:46;15.00;99.90
57829;DHT22;43657;52.698;6.314;2023-08-30T12:08:42;15.10;99.90
57829;DHT22;43657;52.698;6.314;2023-08-30T12:11:18;15.10;99.90
57829;DHT22;43657;52.698;6.314;2023-08-30T12:13:44;15.20;99.90
57829;DHT22;43657;52.698;6.314;2023-08-30T12:16:15;15.20;99.90
57829;DHT22;43657;52.698;6.314;2023-08-30T12:18:42;15.30;99.90
57829;DHT22;43657;52.698;6.314;2023-08-30T12:21:08;15.40;99.90
57829;DHT22;43657;52.698;6.314;2023-08-30T12:23:33;15.40;99.90
57829;DHT22;43657;52.698;6.314;2023-08-30T12:26:03;15.40;99.90
57829;DHT22;43657;52.698;6.314;2023-08-30T12:28:30;15.50;99.90
57829;DHT22;43657;52.698;6.314;2023-08-30T12:30:56;15.50;99.90
57829;DHT22;43657;52.698;6.314;2023-08-30T12:33:23;15.50;99.90
57829;DHT22;43657;52.698;6.314;2023-08-30T12:35:51;15.40;99.90
57829;DHT22;43657;52.698;6.314;2023-08-30T12:38:16;15.40;99.90
57829;DHT22;43657;52.698;6.314;2023-08-30T12:40:46;15.40;99.90
57829;DHT22;43657;52.698;6.314;2023-08-30T12:43:12;15.30;99.90
57829;DHT22;43657;52.698;6.314;2023-08-30T12:45:41;15.20;99.90
57829;DHT22;43657;52.698;6.314;2023-08-30T12:48:08;15.20;99.90
57829;DHT22;43657;52.698;6.314;2023-08-30T12:50:35;15.30;99.90
57829;DHT22;43657;52.698;6.314;2023-08-30T12:53:02;15.20;99.90
57829;DHT22;43657;52.698;6.314;2023-08-30T12:55:28;15.20;99.90
57829;DHT22;43657;52.698;6.314;2023-08-30T12:57:54;15.10;99.90
57829;DHT22;43657;52.698;6.314;2023-08-30T13:00:20;15.10;99.90
57829;DHT22;43657;52.698;6.314;2023-08-30T13:02:45;15.10;99.90
57829;DHT22;43657;52.698;6.314;2023-08-30T13:05:11;15.20;99.90
57829;DHT22;43657;52.698;6.314;2023-08-30T13:07:37;15.30;99.90
57829;DHT22;43657;52.698;6.314;2023-08-30T13:10:03;15.50;99.90
57829;DHT22;43657;52.698;6.314;2023-08-30T13:12:29;15.80;99.90
57829;DHT22;43657;52.698;6.314;2023-08-30T13:14:54;16.10;99.90
57829;DHT22;43657;52.698;6.314;2023-08-30T13:17:20;16.40;99.90
57829;DHT22;43657;52.698;6.314;2023-08-30T13:19:45;16.60;99.90
57829;DHT22;43657;52.698;6.314;2023-08-30T13:22:11;17.30;99.90
57829;DHT22;43657;52.698;6.314;2023-08-30T13:24:39;17.90;99.90
57829;DHT22;43657;52.698;6.314;2023-08-30T13:27:05;18.30;99.90
57829;DHT22;43657;52.698;6.314;2023-08-30T13:29:31;18.70;99.90
57829;DHT22;43657;52.698;6.314;2023-08-30T13:31:57;18.80;99.90
57829;DHT22;43657;52.698;6.314;2023-08-30T13:34:22;19.00;99.90
57829;DHT22;43657;52.698;6.314;2023-08-30T13:36:48;19.00;99.90
57829;DHT22;43657;52.698;6.314;2023-08-30T13:39:13;19.20;99.90
57829;DHT22;43657;52.698;6.314;2023-08-30T13:41:40;19.70;99.90
57829;DHT22;43657;52.698;6.314;2023-08-30T13:44:06;20.00;99.90
57829;DHT22;43657;52.698;6.314;2023-08-30T13:46:31;20.10;99.90
57829;DHT22;43657;52.698;6.314;2023-08-30T13:48:57;20.30;99.90
57829;DHT22;43657;52.698;6.314;2023-08-30T13:51:24;20.10;99.90
57829;DHT22;43657;52.698;6.314;2023-08-30T13:53:51;19.60;99.90
57829;DHT22;43657;52.698;6.314;2023-08-30T13:56:19;19.20;99.90
57829;DHT22;43657;52.698;6.314;2023-08-30T13:58:45;19.00;99.90
57829;DHT22;43657;52.698;6.314;2023-08-30T14:01:11;18.70;99.90
57829;DHT22;43657;52.698;6.314;2023-08-30T14:03:36;18.60;99.90
57829;DHT22;43657;52.698;6.314;2023-08-30T14:06:02;19.20;99.90
57829;DHT22;43657;52.698;6.314;2023-08-30T14:08:28;19.80;99.90
57829;DHT22;43657;52.698;6.314;2023-08-30T14:10:55;20.10;99.90
57829;DHT22;43657;52.698;6.314;2023-08-30T14:13:20;20.10;99.90
57829;DHT22;43657;52.698;6.314;2023-08-30T14:15:46;20.00;99.90
57829;DHT22;43657;52.698;6.314;2023-08-30T14:18:12;19.80;99.90
57829;DHT22;43657;52.698;6.314;2023-08-30T14:20:37;19.80;99.90
57829;DHT22;43657;52.698;6.314;2023-08-30T14:23:03;19.80;99.90
57829;DHT22;43657;52.698;6.314;2023-08-30T14:25:29;19.50;99.90
57829;DHT22;43657;52.698;6.314;2023-08-30T14:27:54;19.20;99.90
57829;DHT22;43657;52.698;6.314;2023-08-30T14:30:21;18.90;99.90
57829;DHT22;43657;52.698;6.314;2023-08-30T14:32:46;18.90;99.90
57829;DHT22;43657;52.698;6.314;2023-08-30T14:35:12;18.80;99.90
57829;DHT22;43657;52.698;6.314;2023-08-30T14:37:38;18.80;99.90
57829;DHT22;43657;52.698;6.314;2023-08-30T14:40:05;18.70;99.90
57829;DHT22;43657;52.698;6.314;2023-08-30T14:42:31;18.60;99.90
57829;DHT22;43657;52.698;6.314;2023-08-30T14:44:58;18.60;99.90
57829;DHT22;43657;52.698;6.314;2023-08-30T14:47:24;18.60;99.90
57829;DHT22;43657;52.698;6.314;2023-08-30T14:49:50;18.40;99.90
57829;DHT22;43657;52.698;6.314;2023-08-30T14:52:16;18.20;99.90
57829;DHT22;43657;52.698;6.314;2023-08-30T14:54:43;18.00;99.90
57829;DHT22;43657;52.698;6.314;2023-08-30T14:57:08;17.70;99.90
57829;DHT22;43657;52.698;6.314;2023-08-30T14:59:34;17.50;99.90
57829;DHT22;43657;52.698;6.314;2023-08-30T15:02:00;17.30;99.90
57829;DHT22;43657;52.698;6.314;2023-08-30T15:04:26;17.20;99.90
57829;DHT22;43657;52.698;6.314;2023-08-30T15:06:51;17.10;99.90
57829;DHT22;43657;52.698;6.314;2023-08-30T15:09:17;17.00;99.90
57829;DHT22;43657;52.698;6.314;2023-08-30T15:11:44;17.00;99.90
57829;DHT22;43657;52.698;6.314;2023-08-30T15:14:09;17.00;99.90
57829;DHT22;43657;52.698;6.314;2023-08-30T15:16:35;17.00;99.90
57829;DHT22;43657;52.698;6.314;2023-08-30T15:19:01;17.00;99.90
57829;DHT22;43657;52.698;6.314;2023-08-30T15:21:27;17.00;99.90
57829;DHT22;43657;52.698;6.314;2023-08-30T15:23:52;16.90;99.90
57829;DHT22;43657;52.698;6.314;2023-08-30T15:26:18;16.80;99.90
57829;DHT22;43657;52.698;6.314;2023-08-30T15:28:46;16.70;99.90
57829;DHT22;43657;52.698;6.314;2023-08-30T15:31:13;16.50;99.90
57829;DHT22;43657;52.698;6.314;2023-08-30T15:33:38;16.50;99.90
57829;DHT22;43657;52.698;6.314;2023-08-30T15:36:04;16.40;99.90
57829;DHT22;43657;52.698;6.314;2023-08-30T15:38:30;16.30;99.90
57829;DHT22;43657;52.698;6.314;2023-08-30T15:40:56;16.30;99.90